sensor_id;sensor_type;location;lat;lon;timestamp;temperature;humidity
52656;SHT85;35474;51.032;6.998;2023-02-12T00:00:45;8.68;85.86
52656;SHT85;35474;51.032;6.998;2023-02-12T00:03:15;8.61;85.85
52656;SHT85;35474;51.032;6.998;2023-02-12T00:05:42;8.82;85.80
52656;SHT85;35474;51.032;6.998;2023-02-12T00:08:09;8.87;85.22
52656;SHT85;35474;51.032;6.998;2023-02-12T00:10:40;8.88;84.80
52656;SHT85;35474;51.032;6.998;2023-02-12T00:13:11;8.97;85.01
52656;SHT85;35474;51.032;6.998;2023-02-12T00:15:38;8.82;85.11
52656;SHT85;35474;51.032;6.998;2023-02-12T00:18:06;8.57;85.24
52656;SHT85;35474;51.032;6.998;2023-02-12T00:20:32;8.46;85.57
52656;SHT85;35474;51.032;6.998;2023-02-12T00:22:59;8.53;85.78
52656;SHT85;35474;51.032;6.998;2023-02-12T00:25:25;8.78;85.52
52656;SHT85;35474;51.032;6.998;2023-02-12T00:27:52;8.80;85.32
52656;SHT85;35474;51.032;6.998;2023-02-12T00:30:18;8.81;85.16
52656;SHT85;35474;51.032;6.998;2023-02-12T00:32:45;8.87;84.98
52656;SHT85;35474;51.032;6.998;2023-02-12T00:35:12;9.00;84.64
52656;SHT85;35474;51.032;6.998;2023-02-12T00:37:38;8.87;84.88
52656;SHT85;35474;51.032;6.998;2023-02-12T00:40:05;8.77;84.99
52656;SHT85;35474;51.032;6.998;2023-02-12T00:42:32;8.91;84.79
52656;SHT85;35474;51.032;6.998;2023-02-12T00:44:58;9.00;84.90
52656;SHT85;35474;51.032;6.998;2023-02-12T00:47:25;9.02;84.39
52656;SHT85;35474;51.032;6.998;2023-02-12T00:49:51;9.04;84.23
52656;SHT85;35474;51.032;6.998;2023-02-12T00:52:18;8.84;84.32
52656;SHT85;35474;51.032;6.998;2023-02-12T00:54:44;8.71;84.79
52656;SHT85;35474;51.032;6.998;2023-02-12T01:00:34;8.59;85.24
52656;SHT85;35474;51.032;6.998;2023-02-12T01:03:01;8.56;85.61
52656;SHT85;35474;51.032;6.998;2023-02-12T01:05:28;8.65;85.14
52656;SHT85;35474;51.032;6.998;2023-02-12T01:07:55;8.78;85.11
52656;SHT85;35474;51.032;6.998;2023-02-12T01:10:22;8.56;85.43
52656;SHT85;35474;51.032;6.998;2023-02-12T01:12:49;8.46;85.22
52656;SHT85;35474;51.032;6.998;2023-02-12T01:15:16;8.54;85.39
52656;SHT85;35474;51.032;6.998;2023-02-12T01:17:43;8.25;85.69
52656;SHT85;35474;51.032;6.998;2023-02-12T01:20:11;8.25;86.00
52656;SHT85;35474;51.032;6.998;2023-02-12T01:22:40;8.18;86.18
52656;SHT85;35474;51.032;6.998;2023-02-12T01:25:06;8.02;86.72
52656;SHT85;35474;51.032;6.998;2023-02-12T01:27:33;8.12;86.90
52656;SHT85;35474;51.032;6.998;2023-02-12T01:29:59;8.29;86.82
52656;SHT85;35474;51.032;6.998;2023-02-12T01:32:26;8.10;87.39
52656;SHT85;35474;51.032;6.998;2023-02-12T01:34:52;8.15;86.68
52656;SHT85;35474;51.032;6.998;2023-02-12T01:37:19;8.36;86.85
52656;SHT85;35474;51.032;6.998;2023-02-12T01:39:45;8.23;87.04
52656;SHT85;35474;51.032;6.998;2023-02-12T01:42:12;8.06;87.06
52656;SHT85;35474;51.032;6.998;2023-02-12T01:45:33;8.10;87.45
52656;SHT85;35474;51.032;6.998;2023-02-12T01:47:42;8.13;87.50
52656;SHT85;35474;51.032;6.998;2023-02-12T01:50:11;8.18;87.66
52656;SHT85;35474;51.032;6.998;2023-02-12T01:52:45;8.13;87.43
52656;SHT85;35474;51.032;6.998;2023-02-12T01:55:17;8.15;86.97
52656;SHT85;35474;51.032;6.998;2023-02-12T01:57:44;7.82;87.99
52656;SHT85;35474;51.032;6.998;2023-02-12T02:00:14;8.25;87.18
52656;SHT85;35474;51.032;6.998;2023-02-12T02:02:53;8.05;87.50
52656;SHT85;35474;51.032;6.998;2023-02-12T02:05:26;7.78;87.88
52656;SHT85;35474;51.032;6.998;2023-02-12T02:08:00;7.99;87.09
52656;SHT85;35474;51.032;6.998;2023-02-12T02:10:28;7.67;88.50
52656;SHT85;35474;51.032;6.998;2023-02-12T02:12:55;7.74;88.59
52656;SHT85;35474;51.032;6.998;2023-02-12T02:15:40;7.78;88.62
52656;SHT85;35474;51.032;6.998;2023-02-12T02:18:18;7.63;88.72
52656;SHT85;35474;51.032;6.998;2023-02-12T02:26:46;7.86;88.03
52656;SHT85;35474;51.032;6.998;2023-02-12T02:32:02;7.81;88.35
52656;SHT85;35474;51.032;6.998;2023-02-12T02:34:36;7.82;88.41
52656;SHT85;35474;51.032;6.998;2023-02-12T02:37:18;7.81;88.28
52656;SHT85;35474;51.032;6.998;2023-02-12T02:45:39;7.63;88.60
52656;SHT85;35474;51.032;6.998;2023-02-12T02:48:11;7.84;88.67
52656;SHT85;35474;51.032;6.998;2023-02-12T02:50:43;7.72;88.47
52656;SHT85;35474;51.032;6.998;2023-02-12T02:53:16;7.99;88.49
52656;SHT85;35474;51.032;6.998;2023-02-12T02:55:54;8.01;88.17
52656;SHT85;35474;51.032;6.998;2023-02-12T02:58:26;7.88;88.16
52656;SHT85;35474;51.032;6.998;2023-02-12T03:01:02;7.72;88.33
52656;SHT85;35474;51.032;6.998;2023-02-12T03:03:49;8.03;88.28
52656;SHT85;35474;51.032;6.998;2023-02-12T03:06:37;7.78;88.10
52656;SHT85;35474;51.032;6.998;2023-02-12T03:09:33;7.75;88.34
52656;SHT85;35474;51.032;6.998;2023-02-12T03:12:14;7.86;88.13
52656;SHT85;35474;51.032;6.998;2023-02-12T03:14:47;7.68;88.42
52656;SHT85;35474;51.032;6.998;2023-02-12T03:17:21;7.72;88.33
52656;SHT85;35474;51.032;6.998;2023-02-12T03:19:54;7.70;88.57
52656;SHT85;35474;51.032;6.998;2023-02-12T03:22:30;7.71;88.23
52656;SHT85;35474;51.032;6.998;2023-02-12T03:25:00;7.99;87.32
52656;SHT85;35474;51.032;6.998;2023-02-12T03:27:38;7.81;87.40
52656;SHT85;35474;51.032;6.998;2023-02-12T03:30:10;7.88;87.61
52656;SHT85;35474;51.032;6.998;2023-02-12T03:35:14;7.75;88.00
52656;SHT85;35474;51.032;6.998;2023-02-12T03:37:55;7.85;88.05
52656;SHT85;35474;51.032;6.998;2023-02-12T03:40:27;7.74;88.26
52656;SHT85;35474;51.032;6.998;2023-02-12T03:45:45;7.65;88.51
52656;SHT85;35474;51.032;6.998;2023-02-12T03:48:19;7.75;88.69
52656;SHT85;35474;51.032;6.998;2023-02-12T03:50:55;7.79;88.26
52656;SHT85;35474;51.032;6.998;2023-02-12T03:53:35;7.70;88.57
52656;SHT85;35474;51.032;6.998;2023-02-12T03:56:03;7.57;88.49
52656;SHT85;35474;51.032;6.998;2023-02-12T03:58:37;7.61;88.55
52656;SHT85;35474;51.032;6.998;2023-02-12T04:01:07;7.65;88.55
52656;SHT85;35474;51.032;6.998;2023-02-12T04:03:37;7.61;88.44
52656;SHT85;35474;51.032;6.998;2023-02-12T04:06:04;7.70;88.72
52656;SHT85;35474;51.032;6.998;2023-02-12T04:08:30;7.70;88.14
52656;SHT85;35474;51.032;6.998;2023-02-12T04:11:02;7.63;88.57
52656;SHT85;35474;51.032;6.998;2023-02-12T04:13:41;7.57;88.78
52656;SHT85;35474;51.032;6.998;2023-02-12T04:16:40;7.68;88.51
52656;SHT85;35474;51.032;6.998;2023-02-12T04:19:47;7.48;88.79
52656;SHT85;35474;51.032;6.998;2023-02-12T04:25:11;7.77;88.52
52656;SHT85;35474;51.032;6.998;2023-02-12T04:30:31;7.77;87.65
52656;SHT85;35474;51.032;6.998;2023-02-12T04:33:03;7.55;88.17
52656;SHT85;35474;51.032;6.998;2023-02-12T04:35:33;7.78;88.36
52656;SHT85;35474;51.032;6.998;2023-02-12T04:38:09;7.51;88.54
52656;SHT85;35474;51.032;6.998;2023-02-12T04:40:39;7.48;88.10
52656;SHT85;35474;51.032;6.998;2023-02-12T04:43:07;7.39;88.63
52656;SHT85;35474;51.032;6.998;2023-02-12T04:45:34;7.43;88.82
52656;SHT85;35474;51.032;6.998;2023-02-12T04:48:02;7.63;88.87
52656;SHT85;35474;51.032;6.998;2023-02-12T04:50:39;7.51;88.78
52656;SHT85;35474;51.032;6.998;2023-02-12T04:53:08;7.60;88.63
52656;SHT85;35474;51.032;6.998;2023-02-12T04:55:36;7.65;87.89
52656;SHT85;35474;51.032;6.998;2023-02-12T04:58:03;7.47;88.33
52656;SHT85;35474;51.032;6.998;2023-02-12T05:00:29;7.42;88.36
52656;SHT85;35474;51.032;6.998;2023-02-12T05:02:56;7.50;88.44
52656;SHT85;35474;51.032;6.998;2023-02-12T05:05:23;7.75;87.96
52656;SHT85;35474;51.032;6.998;2023-02-12T05:07:49;7.92;87.98
52656;SHT85;35474;51.032;6.998;2023-02-12T05:10:16;7.74;87.70
52656;SHT85;35474;51.032;6.998;2023-02-12T05:12:42;7.35;88.54
52656;SHT85;35474;51.032;6.998;2023-02-12T05:15:09;7.07;89.41
52656;SHT85;35474;51.032;6.998;2023-02-12T05:17:36;6.97;90.38
52656;SHT85;35474;51.032;6.998;2023-02-12T05:20:04;7.26;90.05
52656;SHT85;35474;51.032;6.998;2023-02-12T05:22:30;7.33;90.16
52656;SHT85;35474;51.032;6.998;2023-02-12T05:24:57;7.40;89.98
52656;SHT85;35474;51.032;6.998;2023-02-12T05:27:23;7.37;89.58
52656;SHT85;35474;51.032;6.998;2023-02-12T05:29:50;7.33;89.50
52656;SHT85;35474;51.032;6.998;2023-02-12T05:32:16;7.39;89.38
52656;SHT85;35474;51.032;6.998;2023-02-12T05:34:43;7.43;88.83
52656;SHT85;35474;51.032;6.998;2023-02-12T05:37:09;7.54;88.83
52656;SHT85;35474;51.032;6.998;2023-02-12T05:39:36;7.37;89.00
52656;SHT85;35474;51.032;6.998;2023-02-12T05:42:02;7.42;88.79
52656;SHT85;35474;51.032;6.998;2023-02-12T05:44:29;7.42;88.91
52656;SHT85;35474;51.032;6.998;2023-02-12T05:46:55;7.24;89.14
52656;SHT85;35474;51.032;6.998;2023-02-12T05:49:22;7.33;89.09
52656;SHT85;35474;51.032;6.998;2023-02-12T05:51:48;7.42;89.35
52656;SHT85;35474;51.032;6.998;2023-02-12T05:54:15;7.50;89.32
52656;SHT85;35474;51.032;6.998;2023-02-12T05:56:42;7.44;88.95
52656;SHT85;35474;51.032;6.998;2023-02-12T05:59:12;7.40;89.11
52656;SHT85;35474;51.032;6.998;2023-02-12T06:01:44;7.48;88.73
52656;SHT85;35474;51.032;6.998;2023-02-12T06:04:16;7.43;88.66
52656;SHT85;35474;51.032;6.998;2023-02-12T06:06:51;7.51;88.50
52656;SHT85;35474;51.032;6.998;2023-02-12T06:09:18;7.54;88.76
52656;SHT85;35474;51.032;6.998;2023-02-12T06:11:45;7.63;88.20
52656;SHT85;35474;51.032;6.998;2023-02-12T06:14:13;7.53;88.18
52656;SHT85;35474;51.032;6.998;2023-02-12T06:16:43;7.60;88.40
52656;SHT85;35474;51.032;6.998;2023-02-12T06:19:11;7.82;88.46
52656;SHT85;35474;51.032;6.998;2023-02-12T06:21:37;7.95;87.88
52656;SHT85;35474;51.032;6.998;2023-02-12T06:24:04;7.77;88.11
52656;SHT85;35474;51.032;6.998;2023-02-12T06:26:30;7.91;87.77
52656;SHT85;35474;51.032;6.998;2023-02-12T06:28:57;8.01;87.67
52656;SHT85;35474;51.032;6.998;2023-02-12T06:31:25;7.95;87.49
52656;SHT85;35474;51.032;6.998;2023-02-12T06:33:54;7.82;87.51
52656;SHT85;35474;51.032;6.998;2023-02-12T06:36:22;7.64;87.87
52656;SHT85;35474;51.032;6.998;2023-02-12T06:38:49;7.93;87.32
52656;SHT85;35474;51.032;6.998;2023-02-12T06:41:16;7.78;87.69
52656;SHT85;35474;51.032;6.998;2023-02-12T06:43:43;7.79;87.58
52656;SHT85;35474;51.032;6.998;2023-02-12T06:46:10;7.91;87.55
52656;SHT85;35474;51.032;6.998;2023-02-12T06:48:37;8.06;87.17
52656;SHT85;35474;51.032;6.998;2023-02-12T06:51:07;8.15;86.53
52656;SHT85;35474;51.032;6.998;2023-02-12T06:53:35;7.86;86.78
52656;SHT85;35474;51.032;6.998;2023-02-12T06:56:03;7.82;86.93
52656;SHT85;35474;51.032;6.998;2023-02-12T06:58:31;7.82;87.43
52656;SHT85;35474;51.032;6.998;2023-02-12T07:01:06;7.61;87.65
52656;SHT85;35474;51.032;6.998;2023-02-12T07:03:39;7.91;87.44
52656;SHT85;35474;51.032;6.998;2023-02-12T07:06:07;7.91;87.38
52656;SHT85;35474;51.032;6.998;2023-02-12T07:08:35;7.79;87.08
52656;SHT85;35474;51.032;6.998;2023-02-12T07:11:02;7.81;87.19
52656;SHT85;35474;51.032;6.998;2023-02-12T07:13:30;7.71;87.96
52656;SHT85;35474;51.032;6.998;2023-02-12T07:16:03;7.72;87.93
52656;SHT85;35474;51.032;6.998;2023-02-12T07:18:35;7.74;88.03
52656;SHT85;35474;51.032;6.998;2023-02-12T07:21:03;7.78;88.11
52656;SHT85;35474;51.032;6.998;2023-02-12T07:23:39;7.81;88.00
52656;SHT85;35474;51.032;6.998;2023-02-12T07:26:12;7.71;87.88
52656;SHT85;35474;51.032;6.998;2023-02-12T07:28:40;7.68;87.88
52656;SHT85;35474;51.032;6.998;2023-02-12T07:32:34;7.88;87.73
52656;SHT85;35474;51.032;6.998;2023-02-12T07:35:01;7.60;88.25
52656;SHT85;35474;51.032;6.998;2023-02-12T07:37:27;7.72;88.18
52656;SHT85;35474;51.032;6.998;2023-02-12T07:39:53;7.79;88.02
52656;SHT85;35474;51.032;6.998;2023-02-12T07:42:20;7.64;88.31
52656;SHT85;35474;51.032;6.998;2023-02-12T07:44:47;7.60;88.09
52656;SHT85;35474;51.032;6.998;2023-02-12T07:47:14;7.53;88.58
52656;SHT85;35474;51.032;6.998;2023-02-12T07:49:41;7.51;88.54
52656;SHT85;35474;51.032;6.998;2023-02-12T07:52:08;7.67;88.89
52656;SHT85;35474;51.032;6.998;2023-02-12T07:54:38;7.51;88.79
52656;SHT85;35474;51.032;6.998;2023-02-12T07:57:04;7.43;89.02
52656;SHT85;35474;51.032;6.998;2023-02-12T07:59:31;7.28;89.08
52656;SHT85;35474;51.032;6.998;2023-02-12T08:01:57;7.34;89.21
52656;SHT85;35474;51.032;6.998;2023-02-12T08:04:26;7.35;89.48
52656;SHT85;35474;51.032;6.998;2023-02-12T08:06:53;7.34;89.24
52656;SHT85;35474;51.032;6.998;2023-02-12T08:09:22;7.35;89.33
52656;SHT85;35474;51.032;6.998;2023-02-12T08:11:50;7.30;89.47
52656;SHT85;35474;51.032;6.998;2023-02-12T08:14:18;7.47;89.26
52656;SHT85;35474;51.032;6.998;2023-02-12T08:16:47;7.65;88.90
52656;SHT85;35474;51.032;6.998;2023-02-12T08:19:14;7.61;88.55
52656;SHT85;35474;51.032;6.998;2023-02-12T08:21:48;7.71;88.38
52656;SHT85;35474;51.032;6.998;2023-02-12T08:24:16;7.63;88.44
52656;SHT85;35474;51.032;6.998;2023-02-12T08:26:42;7.64;88.36
52656;SHT85;35474;51.032;6.998;2023-02-12T08:29:11;7.86;87.95
52656;SHT85;35474;51.032;6.998;2023-02-12T08:31:43;7.95;87.37
52656;SHT85;35474;51.032;6.998;2023-02-12T08:34:16;7.99;87.05
52656;SHT85;35474;51.032;6.998;2023-02-12T08:36:48;7.93;86.90
52656;SHT85;35474;51.032;6.998;2023-02-12T08:39:16;8.25;86.71
52656;SHT85;35474;51.032;6.998;2023-02-12T08:41:43;8.19;86.72
52656;SHT85;35474;51.032;6.998;2023-02-12T08:44:10;8.26;86.50
52656;SHT85;35474;51.032;6.998;2023-02-12T08:46:38;8.32;86.21
52656;SHT85;35474;51.032;6.998;2023-02-12T08:49:10;8.56;85.68
52656;SHT85;35474;51.032;6.998;2023-02-12T08:51:40;8.68;85.16
52656;SHT85;35474;51.032;6.998;2023-02-12T08:54:09;8.30;85.66
52656;SHT85;35474;51.032;6.998;2023-02-12T08:56:38;8.39;86.21
52656;SHT85;35474;51.032;6.998;2023-02-12T08:59:05;8.33;86.38
52656;SHT85;35474;51.032;6.998;2023-02-12T09:01:34;8.64;85.99
52656;SHT85;35474;51.032;6.998;2023-02-12T09:04:16;8.46;85.68
52656;SHT85;35474;51.032;6.998;2023-02-12T09:06:46;8.56;85.63
52656;SHT85;35474;51.032;6.998;2023-02-12T09:09:13;8.67;85.50
52656;SHT85;35474;51.032;6.998;2023-02-12T09:11:41;8.70;85.39
52656;SHT85;35474;51.032;6.998;2023-02-12T09:14:09;8.75;85.22
52656;SHT85;35474;51.032;6.998;2023-02-12T09:16:39;8.81;85.23
52656;SHT85;35474;51.032;6.998;2023-02-12T09:19:06;8.71;85.16
52656;SHT85;35474;51.032;6.998;2023-02-12T09:21:33;9.01;84.90
52656;SHT85;35474;51.032;6.998;2023-02-12T09:24:00;8.92;84.82
52656;SHT85;35474;51.032;6.998;2023-02-12T09:26:29;9.23;84.01
52656;SHT85;35474;51.032;6.998;2023-02-12T09:28:56;9.21;84.01
52656;SHT85;35474;51.032;6.998;2023-02-12T09:31:23;9.60;83.56
52656;SHT85;35474;51.032;6.998;2023-02-12T09:33:53;9.64;82.53
52656;SHT85;35474;51.032;6.998;2023-02-12T09:36:22;9.57;82.64
52656;SHT85;35474;51.032;6.998;2023-02-12T09:38:49;9.63;82.40
52656;SHT85;35474;51.032;6.998;2023-02-12T09:41:20;9.69;82.39
52656;SHT85;35474;51.032;6.998;2023-02-12T09:46:55;9.74;82.25
52656;SHT85;35474;51.032;6.998;2023-02-12T09:49:31;9.90;81.53
52656;SHT85;35474;51.032;6.998;2023-02-12T09:52:23;9.79;81.47
52656;SHT85;35474;51.032;6.998;2023-02-12T09:54:53;9.79;81.80
52656;SHT85;35474;51.032;6.998;2023-02-12T09:57:34;10.00;81.26
52656;SHT85;35474;51.032;6.998;2023-02-12T10:00:07;10.14;80.40
52656;SHT85;35474;51.032;6.998;2023-02-12T10:02:37;10.04;80.36
52656;SHT85;35474;51.032;6.998;2023-02-12T10:05:05;9.91;80.36
52656;SHT85;35474;51.032;6.998;2023-02-12T10:13:15;10.22;79.31
52656;SHT85;35474;51.032;6.998;2023-02-12T10:26:48;10.91;77.25
52656;SHT85;35474;51.032;6.998;2023-02-12T10:29:19;10.56;78.01
52656;SHT85;35474;51.032;6.998;2023-02-12T10:31:50;10.69;77.47
52656;SHT85;35474;51.032;6.998;2023-02-12T10:34:21;10.81;77.29
52656;SHT85;35474;51.032;6.998;2023-02-12T10:36:54;10.90;77.54
52656;SHT85;35474;51.032;6.998;2023-02-12T10:39:35;11.08;76.77
52656;SHT85;35474;51.032;6.998;2023-02-12T10:44:43;11.07;76.27
52656;SHT85;35474;51.032;6.998;2023-02-12T10:47:14;11.11;76.14
52656;SHT85;35474;51.032;6.998;2023-02-12T10:49:55;11.55;75.03
52656;SHT85;35474;51.032;6.998;2023-02-12T10:55:28;11.90;72.91
52656;SHT85;35474;51.032;6.998;2023-02-12T10:57:59;11.83;72.36
52656;SHT85;35474;51.032;6.998;2023-02-12T11:00:35;11.90;72.04
52656;SHT85;35474;51.032;6.998;2023-02-12T11:03:04;12.10;71.46
52656;SHT85;35474;51.032;6.998;2023-02-12T11:05:38;11.74;72.02
52656;SHT85;35474;51.032;6.998;2023-02-12T11:08:07;11.35;73.01
52656;SHT85;35474;51.032;6.998;2023-02-12T11:11:01;11.04;74.74
52656;SHT85;35474;51.032;6.998;2023-02-12T11:13:34;11.23;74.78
52656;SHT85;35474;51.032;6.998;2023-02-12T11:16:02;11.55;72.92
52656;SHT85;35474;51.032;6.998;2023-02-12T11:18:30;11.45;73.27
52656;SHT85;35474;51.032;6.998;2023-02-12T11:21:02;11.52;73.88
52656;SHT85;35474;51.032;6.998;2023-02-12T11:23:34;11.93;73.04
52656;SHT85;35474;51.032;6.998;2023-02-12T11:28:31;11.39;73.16
52656;SHT85;35474;51.032;6.998;2023-02-12T11:31:01;11.59;71.39
52656;SHT85;35474;51.032;6.998;2023-02-12T11:33:40;11.42;72.09
52656;SHT85;35474;51.032;6.998;2023-02-12T11:36:28;11.72;72.39
52656;SHT85;35474;51.032;6.998;2023-02-12T11:38:56;11.74;72.62
52656;SHT85;35474;51.032;6.998;2023-02-12T11:43:59;11.74;71.01
52656;SHT85;35474;51.032;6.998;2023-02-12T11:46:27;11.41;71.43
52656;SHT85;35474;51.032;6.998;2023-02-12T11:48:54;11.52;71.01
52656;SHT85;35474;51.032;6.998;2023-02-12T11:51:24;11.26;72.17
52656;SHT85;35474;51.032;6.998;2023-02-12T11:53:55;11.54;71.80
52656;SHT85;35474;51.032;6.998;2023-02-12T11:56:24;11.63;70.93
52656;SHT85;35474;51.032;6.998;2023-02-12T12:01:53;11.62;70.64
52656;SHT85;35474;51.032;6.998;2023-02-12T12:04:24;11.76;70.37
52656;SHT85;35474;51.032;6.998;2023-02-12T12:06:59;11.70;70.40
52656;SHT85;35474;51.032;6.998;2023-02-12T12:09:40;12.14;70.03
52656;SHT85;35474;51.032;6.998;2023-02-12T12:15:16;12.48;68.31
52656;SHT85;35474;51.032;6.998;2023-02-12T12:18:28;12.34;68.06
52656;SHT85;35474;51.032;6.998;2023-02-12T12:24:09;12.14;69.22
52656;SHT85;35474;51.032;6.998;2023-02-12T12:26:43;11.89;69.99
52656;SHT85;35474;51.032;6.998;2023-02-12T12:29:31;12.24;68.95
52656;SHT85;35474;51.032;6.998;2023-02-12T12:32:05;11.78;69.84
52656;SHT85;35474;51.032;6.998;2023-02-12T12:34:37;11.72;70.11
52656;SHT85;35474;51.032;6.998;2023-02-12T12:43:10;11.89;70.68
52656;SHT85;35474;51.032;6.998;2023-02-12T12:46:03;12.14;70.08
52656;SHT85;35474;51.032;6.998;2023-02-12T12:48:47;12.54;68.62
52656;SHT85;35474;51.032;6.998;2023-02-12T12:54:17;12.10;69.82
52656;SHT85;35474;51.032;6.998;2023-02-12T12:57:10;12.30;69.85
52656;SHT85;35474;51.032;6.998;2023-02-12T13:13:32;12.02;70.59
52656;SHT85;35474;51.032;6.998;2023-02-12T13:22:07;12.16;70.81
52656;SHT85;35474;51.032;6.998;2023-02-12T13:27:15;12.85;68.83
52656;SHT85;35474;51.032;6.998;2023-02-12T13:29:47;13.05;67.97
52656;SHT85;35474;51.032;6.998;2023-02-12T13:34:53;12.76;69.42
52656;SHT85;35474;51.032;6.998;2023-02-12T13:37:39;12.57;70.14
52656;SHT85;35474;51.032;6.998;2023-02-12T13:40:19;12.67;69.28
52656;SHT85;35474;51.032;6.998;2023-02-12T13:56:45;12.26;70.04
52656;SHT85;35474;51.032;6.998;2023-02-12T14:02:02;12.46;70.47
52656;SHT85;35474;51.032;6.998;2023-02-12T14:04:31;12.24;70.78
52656;SHT85;35474;51.032;6.998;2023-02-12T14:09:31;12.20;70.78
52656;SHT85;35474;51.032;6.998;2023-02-12T14:15:38;12.18;70.68
52656;SHT85;35474;51.032;6.998;2023-02-12T14:20:31;12.09;71.08
52656;SHT85;35474;51.032;6.998;2023-02-12T14:28:42;12.00;71.08
52656;SHT85;35474;51.032;6.998;2023-02-12T14:33:45;12.28;70.86
52656;SHT85;35474;51.032;6.998;2023-02-12T14:38:59;12.33;70.60
52656;SHT85;35474;51.032;6.998;2023-02-12T14:41:33;12.18;71.07
52656;SHT85;35474;51.032;6.998;2023-02-12T14:52:24;11.76;72.21
52656;SHT85;35474;51.032;6.998;2023-02-12T14:54:58;12.14;71.75
52656;SHT85;35474;51.032;6.998;2023-02-12T14:57:28;11.93;71.98
52656;SHT85;35474;51.032;6.998;2023-02-12T15:00:03;11.88;72.40
52656;SHT85;35474;51.032;6.998;2023-02-12T15:02:31;11.90;72.06
52656;SHT85;35474;51.032;6.998;2023-02-12T15:05:04;12.16;71.21
52656;SHT85;35474;51.032;6.998;2023-02-12T15:07:42;12.17;71.43
52656;SHT85;35474;51.032;6.998;2023-02-12T15:10:15;11.96;71.73
52656;SHT85;35474;51.032;6.998;2023-02-12T15:12:45;11.74;72.26
52656;SHT85;35474;51.032;6.998;2023-02-12T15:21:13;11.83;71.35
52656;SHT85;35474;51.032;6.998;2023-02-12T15:23:46;11.66;72.34
52656;SHT85;35474;51.032;6.998;2023-02-12T15:26:25;11.59;72.73
52656;SHT85;35474;51.032;6.998;2023-02-12T15:28:53;11.69;72.11
52656;SHT85;35474;51.032;6.998;2023-02-12T15:31:26;11.81;71.66
52656;SHT85;35474;51.032;6.998;2023-02-12T15:33:56;11.70;71.97
52656;SHT85;35474;51.032;6.998;2023-02-12T15:36:25;11.82;71.96
52656;SHT85;35474;51.032;6.998;2023-02-12T15:38:58;11.86;71.81
52656;SHT85;35474;51.032;6.998;2023-02-12T15:41:39;11.81;71.69
52656;SHT85;35474;51.032;6.998;2023-02-12T15:44:27;11.58;72.39
52656;SHT85;35474;51.032;6.998;2023-02-12T15:47:29;11.52;72.80
52656;SHT85;35474;51.032;6.998;2023-02-12T15:49:51;11.34;73.32
52656;SHT85;35474;51.032;6.998;2023-02-12T15:52:32;11.44;73.34
52656;SHT85;35474;51.032;6.998;2023-02-12T15:55:04;11.26;73.73
52656;SHT85;35474;51.032;6.998;2023-02-12T15:57:31;11.18;74.25
52656;SHT85;35474;51.032;6.998;2023-02-12T16:00:03;11.01;74.74
52656;SHT85;35474;51.032;6.998;2023-02-12T16:02:34;10.93;75.31
52656;SHT85;35474;51.032;6.998;2023-02-12T16:07:24;10.80;75.84
52656;SHT85;35474;51.032;6.998;2023-02-12T16:09:54;10.77;76.02
52656;SHT85;35474;51.032;6.998;2023-02-12T16:12:22;10.69;76.43
52656;SHT85;35474;51.032;6.998;2023-02-12T16:14:56;10.66;76.52
52656;SHT85;35474;51.032;6.998;2023-02-12T16:17:29;10.76;76.26
52656;SHT85;35474;51.032;6.998;2023-02-12T16:26:18;10.87;76.11
52656;SHT85;35474;51.032;6.998;2023-02-12T16:28:49;10.81;76.21
52656;SHT85;35474;51.032;6.998;2023-02-12T16:31:18;10.69;76.66
52656;SHT85;35474;51.032;6.998;2023-02-12T16:33:50;10.86;76.69
52656;SHT85;35474;51.032;6.998;2023-02-12T16:38:46;10.99;75.69
52656;SHT85;35474;51.032;6.998;2023-02-12T16:44:19;10.87;75.76
52656;SHT85;35474;51.032;6.998;2023-02-12T16:46:43;10.99;75.93
52656;SHT85;35474;51.032;6.998;2023-02-12T16:49:14;11.08;75.55
52656;SHT85;35474;51.032;6.998;2023-02-12T16:51:43;11.14;75.40
52656;SHT85;35474;51.032;6.998;2023-02-12T16:54:28;11.21;75.27
52656;SHT85;35474;51.032;6.998;2023-02-12T16:56:59;11.01;75.42
52656;SHT85;35474;51.032;6.998;2023-02-12T16:59:27;11.14;75.52
52656;SHT85;35474;51.032;6.998;2023-02-12T17:01:59;11.26;75.19
52656;SHT85;35474;51.032;6.998;2023-02-12T17:04:27;11.35;74.87
52656;SHT85;35474;51.032;6.998;2023-02-12T17:06:54;11.26;74.53
52656;SHT85;35474;51.032;6.998;2023-02-12T17:09:20;11.34;74.53
52656;SHT85;35474;51.032;6.998;2023-02-12T17:11:47;11.37;74.58
52656;SHT85;35474;51.032;6.998;2023-02-12T17:14:18;11.34;74.41
52656;SHT85;35474;51.032;6.998;2023-02-12T17:16:45;11.37;74.69
52656;SHT85;35474;51.032;6.998;2023-02-12T17:19:12;11.48;74.53
52656;SHT85;35474;51.032;6.998;2023-02-12T17:21:40;11.47;74.25
52656;SHT85;35474;51.032;6.998;2023-02-12T17:24:13;11.49;74.21
52656;SHT85;35474;51.032;6.998;2023-02-12T17:26:53;11.26;74.74
52656;SHT85;35474;51.032;6.998;2023-02-12T17:29:21;11.31;74.71
52656;SHT85;35474;51.032;6.998;2023-02-12T17:31:49;11.32;74.81
52656;SHT85;35474;51.032;6.998;2023-02-12T17:34:18;11.32;74.92
52656;SHT85;35474;51.032;6.998;2023-02-12T17:36:45;11.24;74.69
52656;SHT85;35474;51.032;6.998;2023-02-12T17:39:12;11.30;75.08
52656;SHT85;35474;51.032;6.998;2023-02-12T17:41:40;11.38;74.71
52656;SHT85;35474;51.032;6.998;2023-02-12T17:44:09;11.30;74.69
52656;SHT85;35474;51.032;6.998;2023-02-12T17:46:38;11.47;74.39
52656;SHT85;35474;51.032;6.998;2023-02-12T17:49:04;11.26;75.29
52656;SHT85;35474;51.032;6.998;2023-02-12T17:51:31;11.27;74.97
52656;SHT85;35474;51.032;6.998;2023-02-12T17:53:57;11.10;75.31
52656;SHT85;35474;51.032;6.998;2023-02-12T17:56:24;11.06;75.66
52656;SHT85;35474;51.032;6.998;2023-02-12T17:58:51;11.06;75.77
52656;SHT85;35474;51.032;6.998;2023-02-12T18:01:19;11.07;75.93
52656;SHT85;35474;51.032;6.998;2023-02-12T18:03:47;11.08;75.93
52656;SHT85;35474;51.032;6.998;2023-02-12T18:06:21;10.93;75.93
52656;SHT85;35474;51.032;6.998;2023-02-12T18:08:52;10.83;76.20
52656;SHT85;35474;51.032;6.998;2023-02-12T18:11:19;10.93;76.01
52656;SHT85;35474;51.032;6.998;2023-02-12T18:13:45;10.89;76.23
52656;SHT85;35474;51.032;6.998;2023-02-12T18:16:12;10.86;76.36
52656;SHT85;35474;51.032;6.998;2023-02-12T18:18:39;10.73;76.62
52656;SHT85;35474;51.032;6.998;2023-02-12T18:21:07;10.72;76.78
52656;SHT85;35474;51.032;6.998;2023-02-12T18:23:35;10.69;77.19
52656;SHT85;35474;51.032;6.998;2023-02-12T18:26:05;10.83;76.73
52656;SHT85;35474;51.032;6.998;2023-02-12T18:28:43;10.76;76.85
52656;SHT85;35474;51.032;6.998;2023-02-12T18:31:10;10.63;76.92
52656;SHT85;35474;51.032;6.998;2023-02-12T18:33:37;10.60;76.55
52656;SHT85;35474;51.032;6.998;2023-02-12T18:36:09;10.56;76.63
52656;SHT85;35474;51.032;6.998;2023-02-12T18:38:38;10.50;76.65
52656;SHT85;35474;51.032;6.998;2023-02-12T18:41:06;10.41;76.80
52656;SHT85;35474;51.032;6.998;2023-02-12T18:43:38;10.55;76.45
52656;SHT85;35474;51.032;6.998;2023-02-12T18:46:07;10.50;76.88
52656;SHT85;35474;51.032;6.998;2023-02-12T18:48:39;10.44;76.70
52656;SHT85;35474;51.032;6.998;2023-02-12T18:51:07;10.46;76.53